sensor_id;sensor_type;location;lat;lon;timestamp;temperature;humidity
73643;DHT22;61938;48.652;9.292;2023-03-23T00:00:05;11.20;99.90
73643;DHT22;61938;48.652;9.292;2023-03-23T00:02:31;11.20;99.90
73643;DHT22;61938;48.652;9.292;2023-03-23T00:05:01;11.10;99.90
73643;DHT22;61938;48.652;9.292;2023-03-23T00:07:28;11.20;99.90
73643;DHT22;61938;48.652;9.292;2023-03-23T00:09:55;11.20;99.90
73643;DHT22;61938;48.652;9.292;2023-03-23T00:12:25;11.20;99.90
73643;DHT22;61938;48.652;9.292;2023-03-23T00:15:05;11.20;99.90
73643;DHT22;61938;48.652;9.292;2023-03-23T00:17:31;11.30;99.90
73643;DHT22;61938;48.652;9.292;2023-03-23T00:20:01;11.30;99.90
73643;DHT22;61938;48.652;9.292;2023-03-23T00:22:29;11.30;99.90
73643;DHT22;61938;48.652;9.292;2023-03-23T00:24:54;11.20;99.90
73643;DHT22;61938;48.652;9.292;2023-03-23T00:27:21;11.30;99.90
73643;DHT22;61938;48.652;9.292;2023-03-23T00:29:51;11.30;99.90
73643;DHT22;61938;48.652;9.292;2023-03-23T00:32:22;11.30;99.90
73643;DHT22;61938;48.652;9.292;2023-03-23T00:34:54;11.20;99.90
73643;DHT22;61938;48.652;9.292;2023-03-23T00:37:20;11.20;99.90
73643;DHT22;61938;48.652;9.292;2023-03-23T00:39:46;11.20;99.90
73643;DHT22;61938;48.652;9.292;2023-03-23T00:42:13;11.10;99.90
73643;DHT22;61938;48.652;9.292;2023-03-23T00:44:39;11.10;99.90
73643;DHT22;61938;48.652;9.292;2023-03-23T00:47:05;11.10;99.90
73643;DHT22;61938;48.652;9.292;2023-03-23T00:49:33;11.10;99.90
73643;DHT22;61938;48.652;9.292;2023-03-23T00:52:00;11.10;99.90
73643;DHT22;61938;48.652;9.292;2023-03-23T00:54:26;11.00;99.90
73643;DHT22;61938;48.652;9.292;2023-03-23T00:56:52;11.00;99.90
73643;DHT22;61938;48.652;9.292;2023-03-23T00:59:18;11.00;99.90
73643;DHT22;61938;48.652;9.292;2023-03-23T01:01:44;10.90;99.90
73643;DHT22;61938;48.652;9.292;2023-03-23T01:04:09;11.00;99.90
73643;DHT22;61938;48.652;9.292;2023-03-23T01:06:38;11.00;99.90
73643;DHT22;61938;48.652;9.292;2023-03-23T01:09:06;11.00;99.90
73643;DHT22;61938;48.652;9.292;2023-03-23T01:11:32;11.00;99.90
73643;DHT22;61938;48.652;9.292;2023-03-23T01:13:58;11.00;99.90
73643;DHT22;61938;48.652;9.292;2023-03-23T01:16:24;11.00;99.90
73643;DHT22;61938;48.652;9.292;2023-03-23T01:18:49;11.00;99.90
73643;DHT22;61938;48.652;9.292;2023-03-23T01:21:17;11.00;99.90
73643;DHT22;61938;48.652;9.292;2023-03-23T01:23:43;11.00;99.90
73643;DHT22;61938;48.652;9.292;2023-03-23T01:26:15;11.00;99.90
73643;DHT22;61938;48.652;9.292;2023-03-23T01:28:42;10.90;99.90
73643;DHT22;61938;48.652;9.292;2023-03-23T01:31:14;10.90;99.90
73643;DHT22;61938;48.652;9.292;2023-03-23T01:33:41;10.90;99.90
73643;DHT22;61938;48.652;9.292;2023-03-23T01:36:10;11.00;99.90
73643;DHT22;61938;48.652;9.292;2023-03-23T01:38:36;11.00;99.90
73643;DHT22;61938;48.652;9.292;2023-03-23T01:41:03;11.00;99.90
73643;DHT22;61938;48.652;9.292;2023-03-23T01:43:28;11.00;99.90
73643;DHT22;61938;48.652;9.292;2023-03-23T01:45:54;11.00;99.90
73643;DHT22;61938;48.652;9.292;2023-03-23T01:48:32;11.00;99.90
73643;DHT22;61938;48.652;9.292;2023-03-23T01:51:04;10.90;99.90
73643;DHT22;61938;48.652;9.292;2023-03-23T01:53:40;10.90;99.90
73643;DHT22;61938;48.652;9.292;2023-03-23T01:56:09;10.90;99.90
73643;DHT22;61938;48.652;9.292;2023-03-23T01:58:37;10.90;99.90
73643;DHT22;61938;48.652;9.292;2023-03-23T02:01:09;10.90;99.90
73643;DHT22;61938;48.652;9.292;2023-03-23T02:03:39;10.90;99.90
73643;DHT22;61938;48.652;9.292;2023-03-23T02:06:06;10.90;99.90
73643;DHT22;61938;48.652;9.292;2023-03-23T02:08:33;10.90;99.90
73643;DHT22;61938;48.652;9.292;2023-03-23T02:10:59;11.00;99.90
73643;DHT22;61938;48.652;9.292;2023-03-23T02:13:26;11.10;99.90
73643;DHT22;61938;48.652;9.292;2023-03-23T02:16:10;11.10;99.90
73643;DHT22;61938;48.652;9.292;2023-03-23T02:29:51;11.20;99.90
73643;DHT22;61938;48.652;9.292;2023-03-23T02:35:30;11.10;99.90
73643;DHT22;61938;48.652;9.292;2023-03-23T02:38:01;11.10;99.90
73643;DHT22;61938;48.652;9.292;2023-03-23T02:40:32;11.10;99.90
73643;DHT22;61938;48.652;9.292;2023-03-23T02:42:58;11.10;99.90
73643;DHT22;61938;48.652;9.292;2023-03-23T02:45:27;11.00;99.90
73643;DHT22;61938;48.652;9.292;2023-03-23T02:47:55;11.00;99.90
73643;DHT22;61938;48.652;9.292;2023-03-23T02:50:24;11.00;99.90
73643;DHT22;61938;48.652;9.292;2023-03-23T02:52:53;10.90;99.90
73643;DHT22;61938;48.652;9.292;2023-03-23T02:55:21;10.90;99.90
73643;DHT22;61938;48.652;9.292;2023-03-23T02:57:50;10.90;99.90
73643;DHT22;61938;48.652;9.292;2023-03-23T03:00:17;11.00;99.90
73643;DHT22;61938;48.652;9.292;2023-03-23T03:02:46;11.00;99.90
73643;DHT22;61938;48.652;9.292;2023-03-23T03:13:24;11.10;99.90
73643;DHT22;61938;48.652;9.292;2023-03-23T03:16:07;11.10;99.90
73643;DHT22;61938;48.652;9.292;2023-03-23T03:18:42;11.10;99.90
73643;DHT22;61938;48.652;9.292;2023-03-23T03:21:12;11.10;99.90
73643;DHT22;61938;48.652;9.292;2023-03-23T03:23:40;11.10;99.90
73643;DHT22;61938;48.652;9.292;2023-03-23T03:26:10;11.10;99.90
73643;DHT22;61938;48.652;9.292;2023-03-23T03:28:36;11.10;99.90
73643;DHT22;61938;48.652;9.292;2023-03-23T03:31:04;11.10;99.90
73643;DHT22;61938;48.652;9.292;2023-03-23T03:33:31;11.00;99.90
73643;DHT22;61938;48.652;9.292;2023-03-23T03:36:02;11.00;99.90
73643;DHT22;61938;48.652;9.292;2023-03-23T03:38:28;11.10;99.90
73643;DHT22;61938;48.652;9.292;2023-03-23T03:40:55;11.10;99.90
73643;DHT22;61938;48.652;9.292;2023-03-23T03:43:21;11.10;99.90
73643;DHT22;61938;48.652;9.292;2023-03-23T03:45:46;11.10;99.90
73643;DHT22;61938;48.652;9.292;2023-03-23T03:48:12;11.10;99.90
73643;DHT22;61938;48.652;9.292;2023-03-23T03:50:38;11.20;99.90
73643;DHT22;61938;48.652;9.292;2023-03-23T03:53:04;11.20;99.90
73643;DHT22;61938;48.652;9.292;2023-03-23T03:55:31;11.10;99.90
73643;DHT22;61938;48.652;9.292;2023-03-23T03:58:02;11.10;99.90
73643;DHT22;61938;48.652;9.292;2023-03-23T04:00:28;11.00;99.90
73643;DHT22;61938;48.652;9.292;2023-03-23T04:02:53;11.00;99.90
73643;DHT22;61938;48.652;9.292;2023-03-23T04:05:21;11.00;99.90
73643;DHT22;61938;48.652;9.292;2023-03-23T04:07:47;11.00;99.90
73643;DHT22;61938;48.652;9.292;2023-03-23T04:10:17;11.00;99.90
73643;DHT22;61938;48.652;9.292;2023-03-23T04:12:45;11.00;99.90
73643;DHT22;61938;48.652;9.292;2023-03-23T04:15:10;11.00;99.90
73643;DHT22;61938;48.652;9.292;2023-03-23T04:17:36;11.00;99.90
73643;DHT22;61938;48.652;9.292;2023-03-23T04:20:02;11.00;99.90
73643;DHT22;61938;48.652;9.292;2023-03-23T04:22:44;11.00;99.90
73643;DHT22;61938;48.652;9.292;2023-03-23T04:25:12;11.00;99.90
73643;DHT22;61938;48.652;9.292;2023-03-23T04:27:39;11.10;99.90
73643;DHT22;61938;48.652;9.292;2023-03-23T04:30:05;11.10;99.90
73643;DHT22;61938;48.652;9.292;2023-03-23T04:32:31;11.10;99.90
73643;DHT22;61938;48.652;9.292;2023-03-23T04:34:58;11.10;99.90
73643;DHT22;61938;48.652;9.292;2023-03-23T04:37:25;11.10;99.90
73643;DHT22;61938;48.652;9.292;2023-03-23T04:39:56;11.10;99.90
73643;DHT22;61938;48.652;9.292;2023-03-23T04:42:32;11.10;99.90
73643;DHT22;61938;48.652;9.292;2023-03-23T04:44:58;11.10;99.90
73643;DHT22;61938;48.652;9.292;2023-03-23T04:47:25;11.10;99.90
73643;DHT22;61938;48.652;9.292;2023-03-23T04:49:56;11.10;99.90
73643;DHT22;61938;48.652;9.292;2023-03-23T04:52:22;11.10;99.90
73643;DHT22;61938;48.652;9.292;2023-03-23T04:54:47;11.10;99.90
73643;DHT22;61938;48.652;9.292;2023-03-23T04:57:13;11.10;99.90
73643;DHT22;61938;48.652;9.292;2023-03-23T04:59:40;11.10;99.90
73643;DHT22;61938;48.652;9.292;2023-03-23T05:02:06;11.10;99.90
73643;DHT22;61938;48.652;9.292;2023-03-23T05:04:32;11.10;99.90
73643;DHT22;61938;48.652;9.292;2023-03-23T05:06:58;11.10;99.90
73643;DHT22;61938;48.652;9.292;2023-03-23T05:09:24;11.20;99.90
73643;DHT22;61938;48.652;9.292;2023-03-23T05:11:49;11.20;99.90
73643;DHT22;61938;48.652;9.292;2023-03-23T05:14:15;11.20;99.90
73643;DHT22;61938;48.652;9.292;2023-03-23T05:16:40;11.20;99.90
73643;DHT22;61938;48.652;9.292;2023-03-23T05:19:06;11.20;99.90
73643;DHT22;61938;48.652;9.292;2023-03-23T05:21:32;11.30;99.90
73643;DHT22;61938;48.652;9.292;2023-03-23T05:23:59;11.30;99.90
73643;DHT22;61938;48.652;9.292;2023-03-23T05:26:26;11.20;99.90
73643;DHT22;61938;48.652;9.292;2023-03-23T05:28:54;11.20;99.90
73643;DHT22;61938;48.652;9.292;2023-03-23T05:31:21;11.30;99.90
73643;DHT22;61938;48.652;9.292;2023-03-23T05:33:47;11.30;99.90
73643;DHT22;61938;48.652;9.292;2023-03-23T05:36:12;11.30;99.90
73643;DHT22;61938;48.652;9.292;2023-03-23T05:38:41;11.30;99.90
73643;DHT22;61938;48.652;9.292;2023-03-23T05:41:13;11.40;99.90
73643;DHT22;61938;48.652;9.292;2023-03-23T05:43:39;11.40;99.90
73643;DHT22;61938;48.652;9.292;2023-03-23T05:46:04;11.50;99.90
73643;DHT22;61938;48.652;9.292;2023-03-23T05:48:30;11.60;99.90
73643;DHT22;61938;48.652;9.292;2023-03-23T05:50:55;11.70;99.90
73643;DHT22;61938;48.652;9.292;2023-03-23T05:53:22;11.80;99.90
73643;DHT22;61938;48.652;9.292;2023-03-23T05:55:48;11.80;99.90
73643;DHT22;61938;48.652;9.292;2023-03-23T05:58:14;11.80;99.90
73643;DHT22;61938;48.652;9.292;2023-03-23T06:00:39;11.80;99.90
73643;DHT22;61938;48.652;9.292;2023-03-23T06:03:05;11.80;99.90
73643;DHT22;61938;48.652;9.292;2023-03-23T06:05:31;11.80;99.90
73643;DHT22;61938;48.652;9.292;2023-03-23T06:07:58;11.80;99.90
73643;DHT22;61938;48.652;9.292;2023-03-23T06:10:24;11.80;99.90
73643;DHT22;61938;48.652;9.292;2023-03-23T06:12:50;11.90;99.90
73643;DHT22;61938;48.652;9.292;2023-03-23T06:15:17;12.00;99.90
73643;DHT22;61938;48.652;9.292;2023-03-23T06:17:42;12.00;99.90
73643;DHT22;61938;48.652;9.292;2023-03-23T06:20:09;12.10;99.90
73643;DHT22;61938;48.652;9.292;2023-03-23T06:22:39;12.20;99.90
73643;DHT22;61938;48.652;9.292;2023-03-23T06:25:06;12.30;99.90
73643;DHT22;61938;48.652;9.292;2023-03-23T06:27:31;12.40;99.90
73643;DHT22;61938;48.652;9.292;2023-03-23T06:29:57;12.50;99.90
73643;DHT22;61938;48.652;9.292;2023-03-23T06:32:24;12.60;99.90
73643;DHT22;61938;48.652;9.292;2023-03-23T06:34:50;12.70;99.90
73643;DHT22;61938;48.652;9.292;2023-03-23T06:37:16;12.80;99.90
73643;DHT22;61938;48.652;9.292;2023-03-23T06:39:42;12.90;99.90
73643;DHT22;61938;48.652;9.292;2023-03-23T06:42:11;12.90;99.90
73643;DHT22;61938;48.652;9.292;2023-03-23T06:44:37;12.90;99.90
73643;DHT22;61938;48.652;9.292;2023-03-23T06:47:03;12.90;99.90
73643;DHT22;61938;48.652;9.292;2023-03-23T06:49:29;12.90;99.90
73643;DHT22;61938;48.652;9.292;2023-03-23T06:51:55;12.90;99.90
73643;DHT22;61938;48.652;9.292;2023-03-23T06:54:25;12.90;99.90
73643;DHT22;61938;48.652;9.292;2023-03-23T06:56:51;12.90;99.90
73643;DHT22;61938;48.652;9.292;2023-03-23T06:59:17;12.90;99.90
73643;DHT22;61938;48.652;9.292;2023-03-23T07:01:42;12.90;99.90
73643;DHT22;61938;48.652;9.292;2023-03-23T07:04:08;12.90;99.90
73643;DHT22;61938;48.652;9.292;2023-03-23T07:06:33;12.90;99.90
73643;DHT22;61938;48.652;9.292;2023-03-23T07:08:59;12.90;99.90
73643;DHT22;61938;48.652;9.292;2023-03-23T07:11:24;13.00;99.90
73643;DHT22;61938;48.652;9.292;2023-03-23T07:13:50;13.00;99.90
73643;DHT22;61938;48.652;9.292;2023-03-23T07:16:16;13.20;99.90
73643;DHT22;61938;48.652;9.292;2023-03-23T07:18:43;13.20;99.90
73643;DHT22;61938;48.652;9.292;2023-03-23T07:21:08;13.30;99.90
73643;DHT22;61938;48.652;9.292;2023-03-23T07:23:34;13.40;99.90
73643;DHT22;61938;48.652;9.292;2023-03-23T07:25:59;13.40;99.90
73643;DHT22;61938;48.652;9.292;2023-03-23T07:28:25;13.40;99.90
73643;DHT22;61938;48.652;9.292;2023-03-23T07:30:51;13.50;99.90
73643;DHT22;61938;48.652;9.292;2023-03-23T07:33:16;13.50;99.90
73643;DHT22;61938;48.652;9.292;2023-03-23T07:35:42;13.50;99.90
73643;DHT22;61938;48.652;9.292;2023-03-23T07:38:08;13.40;99.90
73643;DHT22;61938;48.652;9.292;2023-03-23T07:40:34;13.40;99.90
73643;DHT22;61938;48.652;9.292;2023-03-23T07:43:01;13.40;99.90
73643;DHT22;61938;48.652;9.292;2023-03-23T07:45:27;13.30;99.90
73643;DHT22;61938;48.652;9.292;2023-03-23T07:47:53;13.30;99.90
73643;DHT22;61938;48.652;9.292;2023-03-23T07:50:19;13.20;99.90
73643;DHT22;61938;48.652;9.292;2023-03-23T07:52:48;13.30;99.90
73643;DHT22;61938;48.652;9.292;2023-03-23T07:55:14;13.30;99.90
73643;DHT22;61938;48.652;9.292;2023-03-23T07:57:46;13.40;99.90
73643;DHT22;61938;48.652;9.292;2023-03-23T08:00:13;13.40;99.90
73643;DHT22;61938;48.652;9.292;2023-03-23T08:02:52;13.50;99.90
73643;DHT22;61938;48.652;9.292;2023-03-23T08:05:18;13.60;99.90
73643;DHT22;61938;48.652;9.292;2023-03-23T08:07:44;13.80;99.90
73643;DHT22;61938;48.652;9.292;2023-03-23T08:10:12;13.90;99.90
73643;DHT22;61938;48.652;9.292;2023-03-23T08:12:42;14.00;99.90
73643;DHT22;61938;48.652;9.292;2023-03-23T08:15:10;14.00;99.90
73643;DHT22;61938;48.652;9.292;2023-03-23T08:17:39;14.10;99.90
73643;DHT22;61938;48.652;9.292;2023-03-23T08:20:06;14.20;99.90
73643;DHT22;61938;48.652;9.292;2023-03-23T08:22:41;14.30;99.90
73643;DHT22;61938;48.652;9.292;2023-03-23T08:25:10;14.40;99.90
73643;DHT22;61938;48.652;9.292;2023-03-23T08:27:36;14.60;99.90
73643;DHT22;61938;48.652;9.292;2023-03-23T08:30:04;14.70;99.90
73643;DHT22;61938;48.652;9.292;2023-03-23T08:32:30;14.80;99.90
73643;DHT22;61938;48.652;9.292;2023-03-23T08:34:56;14.90;99.90
73643;DHT22;61938;48.652;9.292;2023-03-23T08:37:22;15.00;99.90
73643;DHT22;61938;48.652;9.292;2023-03-23T08:39:55;15.20;99.90
73643;DHT22;61938;48.652;9.292;2023-03-23T08:42:23;15.20;99.90
73643;DHT22;61938;48.652;9.292;2023-03-23T08:44:49;15.30;99.90
73643;DHT22;61938;48.652;9.292;2023-03-23T08:47:14;15.30;99.90
73643;DHT22;61938;48.652;9.292;2023-03-23T08:49:41;15.30;99.90
73643;DHT22;61938;48.652;9.292;2023-03-23T08:52:07;15.30;99.90
73643;DHT22;61938;48.652;9.292;2023-03-23T08:54:33;15.30;99.90
73643;DHT22;61938;48.652;9.292;2023-03-23T08:57:02;15.30;99.90
73643;DHT22;61938;48.652;9.292;2023-03-23T08:59:28;15.30;99.90
73643;DHT22;61938;48.652;9.292;2023-03-23T09:01:54;15.30;99.90
73643;DHT22;61938;48.652;9.292;2023-03-23T09:04:19;15.20;99.90
73643;DHT22;61938;48.652;9.292;2023-03-23T09:06:45;15.30;99.90
73643;DHT22;61938;48.652;9.292;2023-03-23T09:09:11;15.20;99.90
73643;DHT22;61938;48.652;9.292;2023-03-23T09:11:37;15.10;99.90
73643;DHT22;61938;48.652;9.292;2023-03-23T09:14:05;15.10;99.90
73643;DHT22;61938;48.652;9.292;2023-03-23T09:16:31;15.10;99.90
73643;DHT22;61938;48.652;9.292;2023-03-23T09:18:56;15.20;99.90
73643;DHT22;61938;48.652;9.292;2023-03-23T09:21:24;15.20;99.90
73643;DHT22;61938;48.652;9.292;2023-03-23T09:23:50;15.20;99.90
73643;DHT22;61938;48.652;9.292;2023-03-23T09:26:16;15.30;99.90
73643;DHT22;61938;48.652;9.292;2023-03-23T09:28:42;15.20;99.90
73643;DHT22;61938;48.652;9.292;2023-03-23T09:31:09;15.20;99.90
73643;DHT22;61938;48.652;9.292;2023-03-23T09:33:36;15.30;99.90
73643;DHT22;61938;48.652;9.292;2023-03-23T09:36:02;15.30;99.90
73643;DHT22;61938;48.652;9.292;2023-03-23T09:38:28;15.20;99.90
73643;DHT22;61938;48.652;9.292;2023-03-23T09:41:12;15.30;99.90
73643;DHT22;61938;48.652;9.292;2023-03-23T09:43:59;15.30;99.90
73643;DHT22;61938;48.652;9.292;2023-03-23T09:49:52;15.50;99.90
73643;DHT22;61938;48.652;9.292;2023-03-23T09:52:19;15.50;99.90
73643;DHT22;61938;48.652;9.292;2023-03-23T09:54:50;15.40;99.90
73643;DHT22;61938;48.652;9.292;2023-03-23T09:57:37;15.50;99.90
73643;DHT22;61938;48.652;9.292;2023-03-23T10:00:38;15.60;99.90
73643;DHT22;61938;48.652;9.292;2023-03-23T10:03:18;15.50;99.90
73643;DHT22;61938;48.652;9.292;2023-03-23T10:05:50;15.70;99.90
73643;DHT22;61938;48.652;9.292;2023-03-23T10:08:27;15.70;99.90
73643;DHT22;61938;48.652;9.292;2023-03-23T10:11:11;15.70;99.90
73643;DHT22;61938;48.652;9.292;2023-03-23T10:16:10;15.70;99.90
73643;DHT22;61938;48.652;9.292;2023-03-23T10:19:11;15.70;99.90
73643;DHT22;61938;48.652;9.292;2023-03-23T10:21:39;15.80;99.90
73643;DHT22;61938;48.652;9.292;2023-03-23T10:24:09;15.90;99.90
73643;DHT22;61938;48.652;9.292;2023-03-23T10:27:03;15.80;99.90
73643;DHT22;61938;48.652;9.292;2023-03-23T10:29:36;15.90;99.90
73643;DHT22;61938;48.652;9.292;2023-03-23T10:32:39;15.90;99.90
73643;DHT22;61938;48.652;9.292;2023-03-23T10:35:09;16.00;99.90
73643;DHT22;61938;48.652;9.292;2023-03-23T10:37:41;16.00;99.90
73643;DHT22;61938;48.652;9.292;2023-03-23T10:40:18;16.00;99.90
73643;DHT22;61938;48.652;9.292;2023-03-23T10:42:45;16.00;99.90
73643;DHT22;61938;48.652;9.292;2023-03-23T10:45:28;16.00;99.90
73643;DHT22;61938;48.652;9.292;2023-03-23T10:48:22;16.00;99.90
73643;DHT22;61938;48.652;9.292;2023-03-23T10:50:51;16.00;99.90
73643;DHT22;61938;48.652;9.292;2023-03-23T10:53:32;16.10;99.90
73643;DHT22;61938;48.652;9.292;2023-03-23T10:55:58;16.10;99.90
73643;DHT22;61938;48.652;9.292;2023-03-23T10:58:30;16.20;99.90
73643;DHT22;61938;48.652;9.292;2023-03-23T11:00:58;16.30;99.90
73643;DHT22;61938;48.652;9.292;2023-03-23T11:03:39;16.30;99.90
73643;DHT22;61938;48.652;9.292;2023-03-23T11:06:10;16.30;99.90
73643;DHT22;61938;48.652;9.292;2023-03-23T11:08:47;16.40;99.90
73643;DHT22;61938;48.652;9.292;2023-03-23T11:11:26;16.40;99.90
73643;DHT22;61938;48.652;9.292;2023-03-23T11:14:12;16.40;99.90
73643;DHT22;61938;48.652;9.292;2023-03-23T11:17:02;16.40;99.90
73643;DHT22;61938;48.652;9.292;2023-03-23T11:19:30;16.40;99.90
73643;DHT22;61938;48.652;9.292;2023-03-23T11:24:26;16.50;99.90
73643;DHT22;61938;48.652;9.292;2023-03-23T11:26:52;16.60;99.90
73643;DHT22;61938;48.652;9.292;2023-03-23T11:29:27;16.70;99.90
73643;DHT22;61938;48.652;9.292;2023-03-23T11:32:06;16.70;99.90
73643;DHT22;61938;48.652;9.292;2023-03-23T11:34:46;16.70;99.90
73643;DHT22;61938;48.652;9.292;2023-03-23T11:37:35;16.70;99.90
73643;DHT22;61938;48.652;9.292;2023-03-23T11:45:38;17.10;99.90
73643;DHT22;61938;48.652;9.292;2023-03-23T11:48:24;17.20;99.90
73643;DHT22;61938;48.652;9.292;2023-03-23T11:51:11;17.40;99.90
73643;DHT22;61938;48.652;9.292;2023-03-23T11:54:15;17.50;99.90
73643;DHT22;61938;48.652;9.292;2023-03-23T11:56:43;17.60;99.90
73643;DHT22;61938;48.652;9.292;2023-03-23T11:59:13;17.70;99.90
73643;DHT22;61938;48.652;9.292;2023-03-23T12:02:02;17.70;99.90
73643;DHT22;61938;48.652;9.292;2023-03-23T12:04:51;17.70;99.90
73643;DHT22;61938;48.652;9.292;2023-03-23T12:07:46;17.80;99.90
73643;DHT22;61938;48.652;9.292;2023-03-23T12:13:02;17.70;99.90
73643;DHT22;61938;48.652;9.292;2023-03-23T12:15:57;17.70;99.90
73643;DHT22;61938;48.652;9.292;2023-03-23T12:21:52;17.50;99.90
73643;DHT22;61938;48.652;9.292;2023-03-23T12:24:35;17.50;99.90
73643;DHT22;61938;48.652;9.292;2023-03-23T12:33:24;17.30;99.90
73643;DHT22;61938;48.652;9.292;2023-03-23T12:38:48;17.30;99.90
73643;DHT22;61938;48.652;9.292;2023-03-23T12:44:07;17.20;99.90
73643;DHT22;61938;48.652;9.292;2023-03-23T12:49:25;17.30;99.90
73643;DHT22;61938;48.652;9.292;2023-03-23T12:52:02;17.00;99.90
73643;DHT22;61938;48.652;9.292;2023-03-23T12:54:38;17.00;99.90
73643;DHT22;61938;48.652;9.292;2023-03-23T13:02:52;16.90;99.90
73643;DHT22;61938;48.652;9.292;2023-03-23T13:08:02;17.00;99.90
73643;DHT22;61938;48.652;9.292;2023-03-23T13:10:54;17.00;99.90
73643;DHT22;61938;48.652;9.292;2023-03-23T13:13:25;17.00;99.90
73643;DHT22;61938;48.652;9.292;2023-03-23T13:16:08;17.00;99.90
73643;DHT22;61938;48.652;9.292;2023-03-23T13:21:25;17.10;99.90
73643;DHT22;61938;48.652;9.292;2023-03-23T13:24:02;17.10;99.90
73643;DHT22;61938;48.652;9.292;2023-03-23T13:26:29;17.10;99.90
73643;DHT22;61938;48.652;9.292;2023-03-23T13:29:06;17.20;99.90
73643;DHT22;61938;48.652;9.292;2023-03-23T13:31:41;17.20;99.90
73643;DHT22;61938;48.652;9.292;2023-03-23T13:34:22;17.30;99.90
73643;DHT22;61938;48.652;9.292;2023-03-23T13:37:05;17.20;99.90
73643;DHT22;61938;48.652;9.292;2023-03-23T13:39:47;17.30;99.90
73643;DHT22;61938;48.652;9.292;2023-03-23T13:47:27;17.20;99.90
73643;DHT22;61938;48.652;9.292;2023-03-23T13:50:05;17.10;99.90
73643;DHT22;61938;48.652;9.292;2023-03-23T13:57:51;17.20;99.90
73643;DHT22;61938;48.652;9.292;2023-03-23T14:06:01;17.10;99.90
73643;DHT22;61938;48.652;9.292;2023-03-23T14:11:00;17.00;99.90
73643;DHT22;61938;48.652;9.292;2023-03-23T14:13:32;17.00;99.90
73643;DHT22;61938;48.652;9.292;2023-03-23T14:16:15;16.90;99.90
73643;DHT22;61938;48.652;9.292;2023-03-23T14:18:46;16.90;99.90
73643;DHT22;61938;48.652;9.292;2023-03-23T14:21:16;16.80;99.90
73643;DHT22;61938;48.652;9.292;2023-03-23T14:23:42;16.80;99.90
73643;DHT22;61938;48.652;9.292;2023-03-23T14:26:15;16.80;99.90
73643;DHT22;61938;48.652;9.292;2023-03-23T14:28:43;16.80;99.90
73643;DHT22;61938;48.652;9.292;2023-03-23T14:31:20;16.70;99.90
73643;DHT22;61938;48.652;9.292;2023-03-23T14:33:46;16.70;99.90
73643;DHT22;61938;48.652;9.292;2023-03-23T14:36:14;16.70;99.90
73643;DHT22;61938;48.652;9.292;2023-03-23T14:38:40;16.80;99.90
73643;DHT22;61938;48.652;9.292;2023-03-23T14:41:06;16.70;99.90
73643;DHT22;61938;48.652;9.292;2023-03-23T14:43:34;16.60;99.90
73643;DHT22;61938;48.652;9.292;2023-03-23T14:46:06;16.70;99.90
73643;DHT22;61938;48.652;9.292;2023-03-23T14:48:32;16.70;99.90
73643;DHT22;61938;48.652;9.292;2023-03-23T14:51:00;16.70;99.90
73643;DHT22;61938;48.652;9.292;2023-03-23T14:53:39;16.70;99.90
73643;DHT22;61938;48.652;9.292;2023-03-23T14:56:15;16.70;99.90
73643;DHT22;61938;48.652;9.292;2023-03-23T14:58:49;16.70;99.90
73643;DHT22;61938;48.652;9.292;2023-03-23T15:01:19;16.70;99.90
73643;DHT22;61938;48.652;9.292;2023-03-23T15:03:55;16.70;99.90
73643;DHT22;61938;48.652;9.292;2023-03-23T15:06:23;16.70;99.90
73643;DHT22;61938;48.652;9.292;2023-03-23T15:08:53;16.70;99.90
73643;DHT22;61938;48.652;9.292;2023-03-23T15:11:21;16.70;99.90
73643;DHT22;61938;48.652;9.292;2023-03-23T15:13:50;16.70;99.90
73643;DHT22;61938;48.652;9.292;2023-03-23T15:16:22;16.70;99.90
73643;DHT22;61938;48.652;9.292;2023-03-23T15:18:56;16.70;99.90
73643;DHT22;61938;48.652;9.292;2023-03-23T15:21:26;16.70;99.90
73643;DHT22;61938;48.652;9.292;2023-03-23T15:23:52;16.70;99.90
73643;DHT22;61938;48.652;9.292;2023-03-23T15:26:32;16.70;99.90
73643;DHT22;61938;48.652;9.292;2023-03-23T15:31:34;16.70;99.90
73643;DHT22;61938;48.652;9.292;2023-03-23T15:34:04;16.70;99.90
73643;DHT22;61938;48.652;9.292;2023-03-23T15:36:34;16.70;99.90
73643;DHT22;61938;48.652;9.292;2023-03-23T15:39:00;16.70;99.90
73643;DHT22;61938;48.652;9.292;2023-03-23T15:41:28;16.70;99.90
73643;DHT22;61938;48.652;9.292;2023-03-23T15:43:57;16.60;99.90
73643;DHT22;61938;48.652;9.292;2023-03-23T15:46:25;16.50;99.90
73643;DHT22;61938;48.652;9.292;2023-03-23T15:49:04;16.50;99.90
73643;DHT22;61938;48.652;9.292;2023-03-23T15:51:32;16.40;99.90
73643;DHT22;61938;48.652;9.292;2023-03-23T15:53:58;16.30;99.90
73643;DHT22;61938;48.652;9.292;2023-03-23T15:56:24;16.30;99.90
73643;DHT22;61938;48.652;9.292;2023-03-23T15:58:51;16.30;99.90
73643;DHT22;61938;48.652;9.292;2023-03-23T16:01:20;16.30;99.90
73643;DHT22;61938;48.652;9.292;2023-03-23T16:06:19;16.20;99.90
73643;DHT22;61938;48.652;9.292;2023-03-23T16:08:45;16.20;99.90
73643;DHT22;61938;48.652;9.292;2023-03-23T16:11:13;16.20;99.90
73643;DHT22;61938;48.652;9.292;2023-03-23T16:13:39;16.10;99.90
73643;DHT22;61938;48.652;9.292;2023-03-23T16:16:09;16.10;99.90
73643;DHT22;61938;48.652;9.292;2023-03-23T16:18:36;16.10;99.90
73643;DHT22;61938;48.652;9.292;2023-03-23T16:21:02;16.00;99.90
73643;DHT22;61938;48.652;9.292;2023-03-23T16:23:28;16.00;99.90
73643;DHT22;61938;48.652;9.292;2023-03-23T16:25:53;16.00;99.90
73643;DHT22;61938;48.652;9.292;2023-03-23T16:28:19;16.00;99.90
73643;DHT22;61938;48.652;9.292;2023-03-23T16:30:46;16.00;99.90
73643;DHT22;61938;48.652;9.292;2023-03-23T16:33:12;16.00;99.90
73643;DHT22;61938;48.652;9.292;2023-03-23T16:35:38;15.90;99.90
73643;DHT22;61938;48.652;9.292;2023-03-23T16:38:04;15.90;99.90
73643;DHT22;61938;48.652;9.292;2023-03-23T16:40:30;15.90;99.90
73643;DHT22;61938;48.652;9.292;2023-03-23T16:42:56;15.80;99.90
73643;DHT22;61938;48.652;9.292;2023-03-23T16:45:21;15.80;99.90
73643;DHT22;61938;48.652;9.292;2023-03-23T16:47:48;15.70;99.90
73643;DHT22;61938;48.652;9.292;2023-03-23T16:50:16;15.70;99.90
73643;DHT22;61938;48.652;9.292;2023-03-23T16:52:44;15.70;99.90
73643;DHT22;61938;48.652;9.292;2023-03-23T16:55:12;15.70;99.90
73643;DHT22;61938;48.652;9.292;2023-03-23T16:57:38;15.60;99.90
73643;DHT22;61938;48.652;9.292;2023-03-23T17:00:07;15.60;99.90
73643;DHT22;61938;48.652;9.292;2023-03-23T17:02:34;15.50;99.90
73643;DHT22;61938;48.652;9.292;2023-03-23T17:04:59;15.50;99.90
73643;DHT22;61938;48.652;9.292;2023-03-23T17:07:26;15.40;99.90
73643;DHT22;61938;48.652;9.292;2023-03-23T17:09:52;15.40;99.90
73643;DHT22;61938;48.652;9.292;2023-03-23T17:12:17;15.30;99.90
73643;DHT22;61938;48.652;9.292;2023-03-23T17:14:43;15.30;99.90
73643;DHT22;61938;48.652;9.292;2023-03-23T17:17:08;15.30;99.90